Terminal Aerodrome Forecast
Issued by NWS

Home | Current Version | Previous Version | Text Only | Print | Product List | Glossary On
Versions: 1 2 3 4 5 6 7 8 9 10 11 12 13 14 15 16
000
FTUS42 KMLB 011135
TAFLEE
TAF
KLEE 011135Z 0112/0212 03008KT P6SM SCT003 BKN025 OVC080
     FM011400 10008KT P6SM SCT015 BKN025
     FM011800 12008KT P6SM BKN040
      TEMPO 0118/0122 3SM SHRA BKN025
     FM020000 09005KT P6SM SCT030 SCT060 BKN100
     FM020600 07003KT 3SM BR OVC003
      TEMPO 0209/0212 1/2SM FG OVC002=

USA.gov is the U.S. government's official web portal to all federal, state and local government web resources and services.